Amaranth, Pennsylvania
Current Conditions -  °F | °C
As of 10:53 AM on Sunday 21 Dec 2014 (Local Time) from KHGR Reporting Station
Overcast Overcast  
Wind Chill: 34°   Ceiling: 6000
Heat Index: 34°   Visibility: 10mi
Dew Point: 22°   Wind: 3mph
Humidity: 61%   Direction: 350°N
Pressure: 30.34"   Gusts: NA
Location:  39.7745°N, 78.2026°W
Report Text: KHGR 211553Z 35003KT 10SM OVC060 01/M06 A3034 RMK AO2 SLP290 T00111056
Loading
Personal Weather Stations






























Interactive Weather Map New forecast layout! Learn more

10-Day Weather Forecast

Advertisements
Track Severe Weather on mobile